createdAt,value
2019-05-23T00:00:54.199Z,7.16
2019-05-23T00:03:27.246Z,7.24
2019-05-23T00:05:57.325Z,7.17
2019-05-23T00:08:32.328Z,7.21
2019-05-23T00:11:04.214Z,7.31
2019-05-23T00:13:35.510Z,7.34
2019-05-23T00:16:04.766Z,7.25
2019-05-23T00:18:35.918Z,7.17
2019-05-23T00:21:04.977Z,7.18
2019-05-23T00:23:33.497Z,7.31
2019-05-23T00:26:02.814Z,7.23
2019-05-23T00:28:32.854Z,7.41
2019-05-23T00:31:21.219Z,7.30
2019-05-23T00:33:50.349Z,7.34
2019-05-23T00:36:19.555Z,7.22
2019-05-23T00:38:49.822Z,7.13
2019-05-23T00:41:19.162Z,7.03
2019-05-23T00:43:49.022Z,7.11
2019-05-23T00:46:17.722Z,6.98
2019-05-23T00:48:46.572Z,6.86
2019-05-23T00:51:16.601Z,6.62
2019-05-23T00:53:45.044Z,6.46
2019-05-23T00:56:14.589Z,6.66
2019-05-23T00:58:43.301Z,6.71
2019-05-23T01:01:11.884Z,6.63
2019-05-23T01:03:40.377Z,6.60
2019-05-23T01:06:09.118Z,6.62
2019-05-23T01:08:38.082Z,6.56
2019-05-23T01:11:08.158Z,6.63
2019-05-23T01:13:37.524Z,6.52
2019-05-23T01:16:06.858Z,6.56
2019-05-23T01:18:36.011Z,6.60
2019-05-23T01:21:18.548Z,6.54
2019-05-23T01:23:48.950Z,6.68
2019-05-23T01:26:17.671Z,6.55
2019-05-23T01:28:46.201Z,6.38
2019-05-23T01:31:19.154Z,6.29
2019-05-23T01:33:49.411Z,6.37
2019-05-23T01:36:18.005Z,6.30
2019-05-23T01:38:46.446Z,6.33
2019-05-23T01:41:17.064Z,6.24
2019-05-23T01:43:45.578Z,6.11
2019-05-23T01:46:14.467Z,5.96
2019-05-23T01:48:42.952Z,5.92
2019-05-23T01:51:11.535Z,5.92
2019-05-23T01:53:40.335Z,5.93
2019-05-23T01:56:09.636Z,5.97
2019-05-23T01:58:38.696Z,5.85
2019-05-23T02:01:07.177Z,5.82
2019-05-23T02:03:35.948Z,5.90
2019-05-23T02:06:05.190Z,5.73
2019-05-23T02:08:34.519Z,5.84
2019-05-23T02:11:04.177Z,5.93
2019-05-23T02:13:33.504Z,5.87
2019-05-23T02:16:02.017Z,5.81
2019-05-23T02:18:30.990Z,5.83
2019-05-23T02:20:59.555Z,5.83
2019-05-23T02:23:29.015Z,5.78
2019-05-23T02:25:59.537Z,5.87
2019-05-23T02:28:29.961Z,5.80
2019-05-23T02:30:59.652Z,5.80
2019-05-23T02:33:29.337Z,5.74
2019-05-23T02:35:58.648Z,5.67
2019-05-23T02:38:41.235Z,5.71
2019-05-23T02:41:23.871Z,5.50
2019-05-23T02:43:54.558Z,5.44
2019-05-23T02:46:24.703Z,5.46
2019-05-23T02:48:56.129Z,5.58
2019-05-23T02:51:29.367Z,5.62
2019-05-23T02:54:01.846Z,5.65
2019-05-23T02:56:34.262Z,5.89
2019-05-23T02:59:13.191Z,5.65
2019-05-23T03:02:02.563Z,5.57
2019-05-23T03:04:31.081Z,5.50
2019-05-23T03:07:02.733Z,5.33
2019-05-23T03:09:34.092Z,5.30
2019-05-23T03:12:04.061Z,5.32
2019-05-23T03:14:36.534Z,5.26
2019-05-23T03:17:08.073Z,5.30
2019-05-23T03:19:43.137Z,5.26
2019-05-23T03:22:34.335Z,5.19
2019-05-23T03:25:06.063Z,5.07
2019-05-23T03:27:40.486Z,4.98
2019-05-23T03:30:14.242Z,4.96
2019-05-23T03:32:47.371Z,4.82
2019-05-23T03:35:24.269Z,5.07
2019-05-23T03:37:53.503Z,4.78
2019-05-23T03:40:22.985Z,4.93
2019-05-23T03:42:52.152Z,5.19
2019-05-23T03:45:22.933Z,5.02
2019-05-23T03:47:53.121Z,4.82
2019-05-23T03:50:23.072Z,4.75
2019-05-23T03:52:51.560Z,4.60
2019-05-23T03:55:21.526Z,4.56
2019-05-23T03:57:52.943Z,4.62
2019-05-23T04:00:23.629Z,4.51
2019-05-23T04:02:52.153Z,4.58
2019-05-23T04:05:21.998Z,4.59
2019-05-23T04:07:51.586Z,4.59
2019-05-23T04:10:20.447Z,4.63
2019-05-23T04:12:48.915Z,4.70
2019-05-23T04:15:17.957Z,4.75
2019-05-23T04:17:46.756Z,4.86
2019-05-23T04:20:15.674Z,4.97
2019-05-23T04:22:44.370Z,5.12
2019-05-23T04:25:12.953Z,5.21
2019-05-23T04:27:41.553Z,5.31
2019-05-23T04:30:11.853Z,5.44
2019-05-23T04:32:41.151Z,5.53
2019-05-23T04:35:10.499Z,5.91
2019-05-23T04:37:39.028Z,6.08
2019-05-23T04:40:11.277Z,6.37
2019-05-23T04:42:39.913Z,6.73
2019-05-23T04:45:08.787Z,6.98
2019-05-23T04:47:38.415Z,7.03
2019-05-23T04:50:13.379Z,7.07
2019-05-23T04:52:42.938Z,7.29
2019-05-23T04:55:12.868Z,7.70
2019-05-23T04:57:43.308Z,7.63
2019-05-23T05:00:15.939Z,7.59
2019-05-23T05:02:45.726Z,7.83
2019-05-23T05:05:16.284Z,8.02
2019-05-23T05:07:45.442Z,7.96
2019-05-23T05:10:17.272Z,8.09
2019-05-23T05:12:46.112Z,8.10
2019-05-23T05:15:15.268Z,8.10
2019-05-23T05:17:44.576Z,8.29
2019-05-23T05:20:13.721Z,8.81
2019-05-23T05:22:42.232Z,8.96
2019-05-23T05:25:11.114Z,9.28
2019-05-23T05:27:40.485Z,9.53
2019-05-23T05:30:09.740Z,9.85
2019-05-23T05:32:44.561Z,10.12
2019-05-23T05:35:09.619Z,10.42
2019-05-23T05:37:38.198Z,10.49
2019-05-23T05:40:08.283Z,10.65
2019-05-23T05:42:37.963Z,10.76
2019-05-23T05:45:10.349Z,10.92
2019-05-23T05:47:39.418Z,11.21
2019-05-23T05:50:09.690Z,11.62
2019-05-23T05:52:39.018Z,11.95
2019-05-23T05:55:08.440Z,11.97
2019-05-23T05:57:37.326Z,12.08
2019-05-23T06:00:12.869Z,12.66
2019-05-23T06:02:39.751Z,12.79
2019-05-23T06:05:10.228Z,13.07
2019-05-23T06:07:40.899Z,11.69
2019-05-23T06:10:12.158Z,12.85
2019-05-23T06:12:40.952Z,13.09
2019-05-23T06:15:10.347Z,13.38
2019-05-23T06:17:39.859Z,13.51
2019-05-23T06:20:09.126Z,13.70
2019-05-23T06:22:38.197Z,14.10
2019-05-23T06:25:08.882Z,14.34
2019-05-23T06:27:38.307Z,14.43
2019-05-23T06:30:09.884Z,14.97
2019-05-23T06:32:38.778Z,15.22
2019-05-23T06:35:07.949Z,15.26
2019-05-23T06:37:37.300Z,15.32
2019-05-23T06:40:10.046Z,15.53
2019-05-23T06:42:38.813Z,15.58
2019-05-23T06:45:10.419Z,15.81
2019-05-23T06:47:39.721Z,16.00
2019-05-23T06:50:12.987Z,15.97
2019-05-23T06:52:41.991Z,16.32
2019-05-23T06:55:10.576Z,16.68
2019-05-23T06:57:39.109Z,17.01
2019-05-23T07:00:09.416Z,17.09
2019-05-23T07:02:38.448Z,17.44
2019-05-23T07:05:07.200Z,17.58
2019-05-23T07:07:36.101Z,17.96
2019-05-23T07:10:07.151Z,18.37
2019-05-23T07:12:36.408Z,17.41
2019-05-23T07:15:08.874Z,16.67
2019-05-23T07:17:38.091Z,17.67
2019-05-23T07:20:08.007Z,18.15
2019-05-23T07:22:37.295Z,19.00
2019-05-23T07:25:08.364Z,19.62
2019-05-23T07:27:37.390Z,19.13
2019-05-23T07:30:12.160Z,20.19
2019-05-23T07:32:40.731Z,19.73
2019-05-23T07:35:09.188Z,19.77
2019-05-23T07:37:37.674Z,19.97
2019-05-23T07:40:06.677Z,20.49
2019-05-23T07:42:35.142Z,20.01
2019-05-23T07:45:07.545Z,20.14
2019-05-23T07:47:39.939Z,20.43
2019-05-23T07:50:11.280Z,21.46
2019-05-23T07:52:40.012Z,21.28
2019-05-23T07:55:10.327Z,20.26
2019-05-23T07:57:39.118Z,20.99
2019-05-23T08:00:15.648Z,21.48
2019-05-23T08:02:46.924Z,21.38
2019-05-23T08:05:15.556Z,21.52
2019-05-23T08:07:44.632Z,21.74
2019-05-23T08:10:30.874Z,22.41
2019-05-23T08:12:45.710Z,22.52
2019-05-23T08:15:15.071Z,22.24
2019-05-23T08:17:43.559Z,22.84
2019-05-23T08:20:14.309Z,23.28
2019-05-23T08:22:42.808Z,22.56
2019-05-23T08:25:11.425Z,23.26
2019-05-23T08:27:39.917Z,23.96
2019-05-23T08:30:10.281Z,24.57
2019-05-23T08:32:38.782Z,23.89
2019-05-23T08:35:08.155Z,23.73
2019-05-23T08:37:38.170Z,24.09
2019-05-23T08:40:08.500Z,23.80
2019-05-23T08:42:37.585Z,23.13
2019-05-23T08:45:08.823Z,23.65
2019-05-23T08:47:37.421Z,23.29
2019-05-23T08:50:11.275Z,24.30
2019-05-23T08:52:39.797Z,24.94
2019-05-23T08:55:25.059Z,24.57
2019-05-23T08:57:55.070Z,24.37
2019-05-23T09:00:26.195Z,23.49
2019-05-23T09:02:58.503Z,25.30
2019-05-23T09:05:27.674Z,25.48
2019-05-23T09:07:56.289Z,25.55
2019-05-23T09:10:24.884Z,26.22
2019-05-23T09:12:54.014Z,24.68
2019-05-23T09:15:22.634Z,25.37
2019-05-23T09:17:53.941Z,26.04
2019-05-23T09:20:22.268Z,26.22
2019-05-23T09:22:50.894Z,26.01
2019-05-23T09:25:19.774Z,26.02
2019-05-23T09:27:49.657Z,25.15
2019-05-23T09:30:18.802Z,26.05
2019-05-23T09:32:47.433Z,26.19
2019-05-23T09:35:21.909Z,27.13
2019-05-23T09:37:47.438Z,26.77
2019-05-23T09:40:16.580Z,25.30
2019-05-23T09:42:45.231Z,24.43
2019-05-23T09:45:14.333Z,25.49
2019-05-23T09:47:42.839Z,26.03
2019-05-23T09:50:14.145Z,26.10
2019-05-23T09:52:42.601Z,25.62
2019-05-23T09:55:11.958Z,26.30
2019-05-23T09:57:40.390Z,26.47
2019-05-23T10:00:11.290Z,25.35
2019-05-23T10:02:40.316Z,25.90
2019-05-23T10:05:13.253Z,27.48
2019-05-23T10:07:42.112Z,26.58
2019-05-23T10:10:11.978Z,26.78
2019-05-23T10:12:40.495Z,27.41
2019-05-23T10:15:11.799Z,27.91
2019-05-23T10:17:40.580Z,28.61
2019-05-23T10:20:09.864Z,28.31
2019-05-23T10:22:38.475Z,28.73
2019-05-23T10:25:08.055Z,27.93
2019-05-23T10:27:36.639Z,27.84
2019-05-23T10:30:09.113Z,27.67
2019-05-23T10:32:37.702Z,26.59
2019-05-23T10:35:08.072Z,27.16
2019-05-23T10:37:36.477Z,27.72
2019-05-23T10:40:07.482Z,27.97
2019-05-23T10:42:37.819Z,27.70
2019-05-23T10:45:09.499Z,27.66
2019-05-23T10:47:37.994Z,27.92
2019-05-23T10:50:09.577Z,25.78
2019-05-23T10:52:38.101Z,24.25
2019-05-23T10:55:07.384Z,25.95
2019-05-23T10:57:35.986Z,25.69
2019-05-23T11:00:09.937Z,26.34
2019-05-23T11:02:39.220Z,26.40
2019-05-23T11:05:13.453Z,25.99
2019-05-23T11:07:41.931Z,26.40
2019-05-23T11:10:11.872Z,26.41
2019-05-23T11:12:40.988Z,26.11
2019-05-23T11:15:10.640Z,25.82
2019-05-23T11:17:39.540Z,25.19
2019-05-23T11:20:08.982Z,25.18
2019-05-23T11:22:37.406Z,25.23
2019-05-23T11:25:07.757Z,25.14
2019-05-23T11:27:37.006Z,24.03
2019-05-23T11:30:11.281Z,23.60
2019-05-23T11:32:39.788Z,23.65
2019-05-23T11:35:08.556Z,23.73
2019-05-23T11:37:37.141Z,23.87
2019-05-23T11:40:07.383Z,23.51
2019-05-23T11:42:36.541Z,22.64
2019-05-23T11:45:06.996Z,22.42
2019-05-23T11:47:35.927Z,21.90
2019-05-23T11:50:07.375Z,22.06
2019-05-23T11:52:36.025Z,21.40
2019-05-23T11:55:06.457Z,21.95
2019-05-23T11:57:37.784Z,22.25
2019-05-23T12:00:11.228Z,22.10
2019-05-23T12:02:47.518Z,22.30
2019-05-23T12:05:27.274Z,21.54
2019-05-23T12:07:55.710Z,21.83
2019-05-23T12:10:24.431Z,22.51
2019-05-23T12:12:52.986Z,22.48
2019-05-23T12:15:25.686Z,21.72
2019-05-23T12:17:54.143Z,20.12
2019-05-23T12:20:22.777Z,21.31
2019-05-23T12:22:51.431Z,21.69
2019-05-23T12:25:23.049Z,21.61
2019-05-23T12:27:50.186Z,21.70
2019-05-23T12:30:20.854Z,19.81
2019-05-23T12:32:49.429Z,19.03
2019-05-23T12:35:17.936Z,19.30
2019-05-23T12:37:46.343Z,20.20
2019-05-23T12:40:15.058Z,20.77
2019-05-23T12:42:43.564Z,20.92
2019-05-23T12:45:14.220Z,20.83
2019-05-23T12:47:47.086Z,20.50
2019-05-23T12:50:17.338Z,20.53
2019-05-23T12:52:46.064Z,20.89
2019-05-23T12:55:15.045Z,21.25
2019-05-23T12:57:43.493Z,21.20
2019-05-23T13:00:32.159Z,20.85
2019-05-23T13:03:00.821Z,20.91
2019-05-23T13:05:29.204Z,20.63
2019-05-23T13:07:58.470Z,20.64
2019-05-23T13:10:27.418Z,21.01
2019-05-23T13:12:55.938Z,20.59
2019-05-23T13:15:24.724Z,19.36
2019-05-23T13:17:53.320Z,19.93
2019-05-23T13:20:22.268Z,19.53
2019-05-23T13:22:50.722Z,19.18
2019-05-23T13:25:19.633Z,19.65
2019-05-23T13:27:48.112Z,20.11
2019-05-23T13:30:17.238Z,20.23
2019-05-23T13:32:45.726Z,19.74
2019-05-23T13:35:14.433Z,20.18
2019-05-23T13:37:52.942Z,20.18
2019-05-23T13:40:14.701Z,20.16
2019-05-23T13:42:43.562Z,20.48
2019-05-23T13:45:13.490Z,20.22
2019-05-23T13:47:42.303Z,20.11
2019-05-23T13:50:11.863Z,20.24
2019-05-23T13:52:40.811Z,20.47
2019-05-23T13:55:09.486Z,19.98
2019-05-23T13:57:38.152Z,19.97
2019-05-23T14:00:10.549Z,19.90
2019-05-23T14:02:39.297Z,19.62
2019-05-23T14:05:08.703Z,19.74
2019-05-23T14:07:37.832Z,19.20
2019-05-23T14:10:10.546Z,19.60
2019-05-23T14:12:39.482Z,19.18
2019-05-23T14:15:10.440Z,18.98
2019-05-23T14:17:40.627Z,18.57
2019-05-23T14:20:09.481Z,18.98
2019-05-23T14:22:42.787Z,19.05
2019-05-23T14:25:12.172Z,19.33
2019-05-23T14:27:51.719Z,19.21
2019-05-23T14:30:38.601Z,19.55
2019-05-23T14:33:09.956Z,19.57
2019-05-23T14:35:43.145Z,19.55
2019-05-23T14:38:27.843Z,19.66
2019-05-23T14:40:45.475Z,19.74
2019-05-23T14:43:18.591Z,19.78
2019-05-23T14:46:05.118Z,19.66
2019-05-23T14:48:38.941Z,19.69
2019-05-23T14:51:18.336Z,19.55
2019-05-23T14:53:48.754Z,19.63
2019-05-23T14:56:18.483Z,19.62
2019-05-23T14:58:47.004Z,18.96
2019-05-23T15:01:15.559Z,19.33
2019-05-23T15:03:44.124Z,18.82
2019-05-23T15:06:12.582Z,18.92
2019-05-23T15:08:50.871Z,19.34
2019-05-23T15:11:11.585Z,19.40
2019-05-23T15:13:40.327Z,19.40
2019-05-23T15:16:08.990Z,19.46
2019-05-23T15:18:37.431Z,19.48
2019-05-23T15:21:06.326Z,19.36
2019-05-23T15:23:35.329Z,19.43
2019-05-23T15:26:21.724Z,19.29
2019-05-23T15:28:34.366Z,19.13
2019-05-23T15:31:02.852Z,19.22
2019-05-23T15:33:31.398Z,19.33
2019-05-23T15:35:59.917Z,19.46
2019-05-23T15:38:28.345Z,19.53
2019-05-23T15:40:57.088Z,19.51
2019-05-23T15:43:25.615Z,19.40
2019-05-23T15:45:54.173Z,19.48
2019-05-23T15:48:22.638Z,19.32
2019-05-23T15:50:52.058Z,19.46
2019-05-23T15:53:37.519Z,19.42
2019-05-23T15:56:26.823Z,19.43
2019-05-23T15:58:48.358Z,19.22
2019-05-23T16:01:24.602Z,19.25
2019-05-23T16:04:00.341Z,19.23
2019-05-23T16:06:33.170Z,19.28
2019-05-23T16:09:01.600Z,19.16
2019-05-23T16:11:30.122Z,19.13
2019-05-23T16:13:58.601Z,18.83
2019-05-23T16:16:28.086Z,18.81
2019-05-23T16:18:56.550Z,18.95
2019-05-23T16:21:25.060Z,18.98
2019-05-23T16:23:53.725Z,19.07
2019-05-23T16:26:22.396Z,19.07
2019-05-23T16:28:50.878Z,18.69
2019-05-23T16:31:19.420Z,18.81
2019-05-23T16:33:48.028Z,18.87
2019-05-23T16:36:17.197Z,18.74
2019-05-23T16:38:45.902Z,18.63
2019-05-23T16:41:14.460Z,18.82
2019-05-23T16:43:42.952Z,18.68
2019-05-23T16:46:11.392Z,18.77
2019-05-23T16:48:39.896Z,18.52
2019-05-23T16:51:08.491Z,18.41
2019-05-23T16:53:38.624Z,18.48
2019-05-23T16:56:15.273Z,18.39
2019-05-23T16:58:45.393Z,18.40
2019-05-23T17:01:24.077Z,18.50
2019-05-23T17:03:57.761Z,18.48
2019-05-23T17:06:43.337Z,18.40
2019-05-23T17:09:32.386Z,18.42
2019-05-23T17:12:17.662Z,18.33
2019-05-23T17:14:51.557Z,18.27
2019-05-23T17:17:38.022Z,18.25
2019-05-23T17:20:19.037Z,18.29
2019-05-23T17:22:47.921Z,18.26
2019-05-23T17:25:34.885Z,18.24
2019-05-23T17:28:14.791Z,18.19
2019-05-23T17:30:53.959Z,18.15
2019-05-23T17:33:23.395Z,17.95
2019-05-23T17:35:52.018Z,18.10
2019-05-23T17:38:20.708Z,18.01
2019-05-23T17:40:49.128Z,18.01
2019-05-23T17:43:17.662Z,17.99
2019-05-23T17:45:46.339Z,17.95
2019-05-23T17:48:14.874Z,17.80
2019-05-23T17:50:43.358Z,17.91
2019-05-23T17:53:11.860Z,17.61
2019-05-23T17:55:40.340Z,17.65
2019-05-23T17:58:08.916Z,17.62
2019-05-23T18:00:42.101Z,17.66
2019-05-23T18:03:11.382Z,17.60
2019-05-23T18:05:40.567Z,17.58
2019-05-23T18:08:10.050Z,17.63
2019-05-23T18:10:45.296Z,17.59
2019-05-23T18:13:10.118Z,17.53
2019-05-23T18:15:38.698Z,17.42
2019-05-23T18:18:08.575Z,17.46
2019-05-23T18:20:37.843Z,17.40
2019-05-23T18:23:06.766Z,17.34
2019-05-23T18:25:36.461Z,17.29
2019-05-23T18:28:05.417Z,17.14
2019-05-23T18:30:35.867Z,17.04
2019-05-23T18:33:06.110Z,16.99
2019-05-23T18:35:35.625Z,17.00
2019-05-23T18:38:04.767Z,16.88
2019-05-23T18:40:33.597Z,16.90
2019-05-23T18:43:03.065Z,16.87
2019-05-23T18:45:33.165Z,16.61
2019-05-23T18:48:01.970Z,16.61
2019-05-23T18:50:30.961Z,16.58
2019-05-23T18:52:59.630Z,16.37
2019-05-23T18:55:28.806Z,16.31
2019-05-23T18:57:57.469Z,16.38
2019-05-23T19:00:47.654Z,16.32
2019-05-23T19:03:16.587Z,16.32
2019-05-23T19:05:45.037Z,16.05
2019-05-23T19:08:13.700Z,16.07
2019-05-23T19:10:42.606Z,16.09
2019-05-23T19:13:11.425Z,15.97
2019-05-23T19:15:39.880Z,15.83
2019-05-23T19:18:08.804Z,15.84
2019-05-23T19:20:39.008Z,15.72
2019-05-23T19:23:08.038Z,15.57
2019-05-23T19:25:37.652Z,15.50
2019-05-23T19:28:07.785Z,15.26
2019-05-23T19:30:36.703Z,15.26
2019-05-23T19:33:07.068Z,15.28
2019-05-23T19:35:36.875Z,15.19
2019-05-23T19:38:06.527Z,15.12
2019-05-23T19:40:36.439Z,15.01
2019-05-23T19:43:06.678Z,15.12
2019-05-23T19:45:35.768Z,15.11
2019-05-23T19:48:04.582Z,14.96
2019-05-23T19:50:34.084Z,14.59
2019-05-23T19:53:02.623Z,14.42
2019-05-23T19:55:31.815Z,14.56
2019-05-23T19:58:00.794Z,14.28
2019-05-23T20:00:31.585Z,14.02
2019-05-23T20:03:03.907Z,13.76
2019-05-23T20:05:38.143Z,13.86
2019-05-23T20:08:06.949Z,13.81
2019-05-23T20:10:36.305Z,13.62
2019-05-23T20:13:05.490Z,13.64
2019-05-23T20:15:34.314Z,13.49
2019-05-23T20:18:02.846Z,13.31
2019-05-23T20:20:32.996Z,13.30
2019-05-23T20:23:01.528Z,13.23
2019-05-23T20:25:30.254Z,13.19
2019-05-23T20:27:58.804Z,13.14
2019-05-23T20:30:45.430Z,13.28
2019-05-23T20:33:14.885Z,13.37
2019-05-23T20:35:43.387Z,13.47
2019-05-23T20:38:11.929Z,13.55
2019-05-23T20:40:40.494Z,13.49
2019-05-23T20:43:09.327Z,13.28
2019-05-23T20:45:38.589Z,13.28
2019-05-23T20:48:08.071Z,13.25
2019-05-23T20:50:36.658Z,13.24
2019-05-23T20:53:05.435Z,13.17
2019-05-23T20:55:34.730Z,13.14
2019-05-23T20:58:04.081Z,13.15
2019-05-23T21:00:34.311Z,13.07
2019-05-23T21:03:06.618Z,13.05
2019-05-23T21:05:35.589Z,13.08
2019-05-23T21:08:04.172Z,12.70
2019-05-23T21:10:47.146Z,12.82
2019-05-23T21:13:15.832Z,12.66
2019-05-23T21:15:44.826Z,12.51
2019-05-23T21:18:13.631Z,12.46
2019-05-23T21:20:42.080Z,12.51
2019-05-23T21:23:10.908Z,12.30
2019-05-23T21:25:41.266Z,12.38
2019-05-23T21:28:09.896Z,12.45
2019-05-23T21:30:38.413Z,12.35
2019-05-23T21:33:06.939Z,12.23
2019-05-23T21:35:35.467Z,12.19
2019-05-23T21:38:04.133Z,12.16
2019-05-23T21:40:38.514Z,12.15
2019-05-23T21:43:07.257Z,11.98
2019-05-23T21:45:35.933Z,11.88
2019-05-23T21:48:04.939Z,11.86
2019-05-23T21:50:33.509Z,11.88
2019-05-23T21:53:02.578Z,11.71
2019-05-23T21:55:44.371Z,11.79
2019-05-23T21:58:13.934Z,11.81
2019-05-23T22:01:08.031Z,11.58
2019-05-23T22:03:43.440Z,11.50
2019-05-23T22:06:14.949Z,11.51
2019-05-23T22:08:44.154Z,11.57
2019-05-23T22:11:13.176Z,11.54
2019-05-23T22:13:41.769Z,11.37
2019-05-23T22:16:11.145Z,11.31
2019-05-23T22:18:39.786Z,11.29
2019-05-23T22:21:08.455Z,11.36
2019-05-23T22:23:37.038Z,11.43
2019-05-23T22:26:05.661Z,11.41
2019-05-23T22:28:34.113Z,11.35
2019-05-23T22:31:02.629Z,11.38
2019-05-23T22:33:32.752Z,11.49
2019-05-23T22:36:01.425Z,11.42
2019-05-23T22:38:29.877Z,11.38
2019-05-23T22:40:58.310Z,11.36
2019-05-23T22:43:26.903Z,11.16
2019-05-23T22:45:55.465Z,11.17
2019-05-23T22:48:23.900Z,11.04
2019-05-23T22:50:52.322Z,11.01
2019-05-23T22:53:20.773Z,10.96
2019-05-23T22:55:49.191Z,11.08
2019-05-23T22:58:17.797Z,10.99
2019-05-23T23:00:47.926Z,10.94
2019-05-23T23:03:16.453Z,11.09
2019-05-23T23:05:45.046Z,10.86
2019-05-23T23:08:13.458Z,10.85
2019-05-23T23:10:42.104Z,10.77
2019-05-23T23:13:10.902Z,10.80
2019-05-23T23:15:39.386Z,10.67
2019-05-23T23:18:08.285Z,10.58
2019-05-23T23:20:36.708Z,10.68
2019-05-23T23:23:05.137Z,10.64
2019-05-23T23:25:34.037Z,10.84
2019-05-23T23:28:02.505Z,11.03
2019-05-23T23:30:32.664Z,10.98
2019-05-23T23:33:01.158Z,11.04
2019-05-23T23:35:29.609Z,11.28
2019-05-23T23:37:58.195Z,11.11
2019-05-23T23:40:26.730Z,10.87
2019-05-23T23:42:55.275Z,10.82
2019-05-23T23:45:41.840Z,10.67
2019-05-23T23:48:28.265Z,10.52
2019-05-23T23:51:14.475Z,10.33
2019-05-23T23:54:01.071Z,10.22
2019-05-23T23:56:47.352Z,10.16
2019-05-23T23:59:15.049Z,10.14
